Terminal Aerodrome Forecast
Issued by NWS Caribou, ME

Home | Current Version | Previous Version | Text Only | Print | Product List | Glossary On
Versions: 1 2 3 4 5 6 7 8 9 10 11 12 13 14 15 16 17 18
000
FTUS41 KCAR 231633 AAD
TAFBGR
TAF AMD
KBGR 231633Z 2317/2412 02007KT 3SM -FZRA BR OVC005
     FM231800 15011KT P6SM -RA OVC003 WS020/19040KT
     FM240000 18013G24KT 5SM -RA OVC004
     FM240400 21010KT P6SM BKN008
     FM240600 26009KT P6SM SCT030=

USA.gov is the U.S. government's official web portal to all federal, state and local government web resources and services.